sensor_id;sensor_type;location;lat;lon;timestamp;P1;durP1;ratioP1;P2;durP2;ratioP2
78169;SDS011;67412;49.892;14.490;2023-06-10T00:00:41;16.20;;;7.97;;
78169;SDS011;67412;49.892;14.490;2023-06-10T00:03:07;16.35;;;8.43;;
78169;SDS011;67412;49.892;14.490;2023-06-10T00:05:34;15.05;;;7.80;;
78169;SDS011;67412;49.892;14.490;2023-06-10T00:08:01;18.70;;;8.75;;
78169;SDS011;67412;49.892;14.490;2023-06-10T00:10:32;18.95;;;9.27;;
78169;SDS011;67412;49.892;14.490;2023-06-10T00:12:58;17.00;;;7.68;;
78169;SDS011;67412;49.892;14.490;2023-06-10T00:15:23;17.38;;;9.07;;
78169;SDS011;67412;49.892;14.490;2023-06-10T00:17:49;19.80;;;8.77;;
78169;SDS011;67412;49.892;14.490;2023-06-10T00:20:14;26.30;;;10.95;;
78169;SDS011;67412;49.892;14.490;2023-06-10T00:22:39;16.60;;;8.15;;
78169;SDS011;67412;49.892;14.490;2023-06-10T00:25:06;15.75;;;7.97;;
78169;SDS011;67412;49.892;14.490;2023-06-10T00:27:32;17.55;;;8.15;;
78169;SDS011;67412;49.892;14.490;2023-06-10T00:30:03;21.15;;;9.30;;
78169;SDS011;67412;49.892;14.490;2023-06-10T00:32:31;21.52;;;9.27;;
78169;SDS011;67412;49.892;14.490;2023-06-10T00:34:57;18.85;;;9.73;;
78169;SDS011;67412;49.892;14.490;2023-06-10T00:37:22;19.73;;;9.70;;
78169;SDS011;67412;49.892;14.490;2023-06-10T00:39:48;18.85;;;8.82;;
78169;SDS011;67412;49.892;14.490;2023-06-10T00:42:13;23.23;;;10.60;;
78169;SDS011;67412;49.892;14.490;2023-06-10T00:44:38;21.58;;;10.90;;
78169;SDS011;67412;49.892;14.490;2023-06-10T00:47:04;19.70;;;10.63;;
78169;SDS011;67412;49.892;14.490;2023-06-10T00:51:56;17.30;;;8.25;;
78169;SDS011;67412;49.892;14.490;2023-06-10T00:54:21;18.27;;;8.18;;
78169;SDS011;67412;49.892;14.490;2023-06-10T00:56:47;15.07;;;7.68;;
78169;SDS011;67412;49.892;14.490;2023-06-10T00:59:13;16.75;;;7.90;;
78169;SDS011;67412;49.892;14.490;2023-06-10T01:01:40;14.38;;;6.95;;
78169;SDS011;67412;49.892;14.490;2023-06-10T01:04:08;17.73;;;9.40;;
78169;SDS011;67412;49.892;14.490;2023-06-10T01:06:40;20.13;;;9.40;;
78169;SDS011;67412;49.892;14.490;2023-06-10T01:09:25;19.48;;;9.82;;
78169;SDS011;67412;49.892;14.490;2023-06-10T01:11:59;21.05;;;10.10;;
78169;SDS011;67412;49.892;14.490;2023-06-10T01:14:33;19.02;;;10.38;;
78169;SDS011;67412;49.892;14.490;2023-06-10T01:17:00;24.80;;;9.55;;
78169;SDS011;67412;49.892;14.490;2023-06-10T01:19:26;17.25;;;8.70;;
78169;SDS011;67412;49.892;14.490;2023-06-10T01:21:53;16.27;;;8.63;;
78169;SDS011;67412;49.892;14.490;2023-06-10T01:24:20;17.63;;;9.07;;
78169;SDS011;67412;49.892;14.490;2023-06-10T01:26:47;17.98;;;8.38;;
78169;SDS011;67412;49.892;14.490;2023-06-10T01:29:19;17.05;;;8.55;;
78169;SDS011;67412;49.892;14.490;2023-06-10T01:32:01;17.67;;;7.95;;
78169;SDS011;67412;49.892;14.490;2023-06-10T01:34:31;17.60;;;7.88;;
78169;SDS011;67412;49.892;14.490;2023-06-10T01:39:23;17.92;;;7.90;;
78169;SDS011;67412;49.892;14.490;2023-06-10T01:41:50;17.30;;;7.68;;
78169;SDS011;67412;49.892;14.490;2023-06-10T01:44:18;13.30;;;6.60;;
78169;SDS011;67412;49.892;14.490;2023-06-10T01:46:44;14.00;;;6.85;;
78169;SDS011;67412;49.892;14.490;2023-06-10T01:49:10;16.40;;;7.90;;
78169;SDS011;67412;49.892;14.490;2023-06-10T01:51:35;13.20;;;7.32;;
78169;SDS011;67412;49.892;14.490;2023-06-10T01:54:01;12.65;;;6.65;;
78169;SDS011;67412;49.892;14.490;2023-06-10T01:56:26;15.48;;;7.63;;
78169;SDS011;67412;49.892;14.490;2023-06-10T01:58:51;13.45;;;6.55;;
78169;SDS011;67412;49.892;14.490;2023-06-10T02:01:20;12.98;;;6.60;;
78169;SDS011;67412;49.892;14.490;2023-06-10T02:03:45;12.93;;;6.30;;
78169;SDS011;67412;49.892;14.490;2023-06-10T02:06:10;12.82;;;6.45;;
78169;SDS011;67412;49.892;14.490;2023-06-10T02:08:35;12.13;;;5.93;;
78169;SDS011;67412;49.892;14.490;2023-06-10T02:11:01;11.70;;;6.05;;
78169;SDS011;67412;49.892;14.490;2023-06-10T02:13:26;12.30;;;6.22;;
78169;SDS011;67412;49.892;14.490;2023-06-10T02:15:51;12.55;;;5.72;;
78169;SDS011;67412;49.892;14.490;2023-06-10T02:18:19;10.93;;;5.75;;
78169;SDS011;67412;49.892;14.490;2023-06-10T02:20:45;11.52;;;5.47;;
78169;SDS011;67412;49.892;14.490;2023-06-10T02:23:11;10.30;;;5.07;;
78169;SDS011;67412;49.892;14.490;2023-06-10T02:25:36;9.73;;;5.07;;
78169;SDS011;67412;49.892;14.490;2023-06-10T02:28:01;10.95;;;6.07;;
78169;SDS011;67412;49.892;14.490;2023-06-10T02:30:28;10.48;;;4.93;;
78169;SDS011;67412;49.892;14.490;2023-06-10T02:32:53;16.02;;;6.28;;
78169;SDS011;67412;49.892;14.490;2023-06-10T02:35:21;10.75;;;5.57;;
78169;SDS011;67412;49.892;14.490;2023-06-10T02:37:49;14.10;;;5.97;;
78169;SDS011;67412;49.892;14.490;2023-06-10T02:40:14;13.13;;;5.93;;
78169;SDS011;67412;49.892;14.490;2023-06-10T02:42:40;11.65;;;6.25;;
78169;SDS011;67412;49.892;14.490;2023-06-10T02:45:05;11.43;;;6.43;;
78169;SDS011;67412;49.892;14.490;2023-06-10T02:47:31;14.52;;;7.25;;
78169;SDS011;67412;49.892;14.490;2023-06-10T02:49:56;12.10;;;5.88;;
78169;SDS011;67412;49.892;14.490;2023-06-10T02:52:22;13.00;;;6.15;;
78169;SDS011;67412;49.892;14.490;2023-06-10T02:54:47;11.63;;;5.88;;
78169;SDS011;67412;49.892;14.490;2023-06-10T02:57:13;10.93;;;5.50;;
78169;SDS011;67412;49.892;14.490;2023-06-10T02:59:39;12.40;;;5.88;;
78169;SDS011;67412;49.892;14.490;2023-06-10T03:02:05;9.90;;;6.05;;
78169;SDS011;67412;49.892;14.490;2023-06-10T03:04:30;11.63;;;5.50;;
78169;SDS011;67412;49.892;14.490;2023-06-10T03:06:56;10.00;;;4.90;;
78169;SDS011;67412;49.892;14.490;2023-06-10T03:09:21;11.68;;;5.53;;
78169;SDS011;67412;49.892;14.490;2023-06-10T03:11:47;11.80;;;5.65;;
78169;SDS011;67412;49.892;14.490;2023-06-10T03:14:12;13.35;;;5.72;;
78169;SDS011;67412;49.892;14.490;2023-06-10T03:16:37;11.90;;;5.75;;
78169;SDS011;67412;49.892;14.490;2023-06-10T03:19:05;10.40;;;5.50;;
78169;SDS011;67412;49.892;14.490;2023-06-10T03:21:32;11.00;;;5.68;;
78169;SDS011;67412;49.892;14.490;2023-06-10T03:23:57;11.82;;;5.28;;
78169;SDS011;67412;49.892;14.490;2023-06-10T03:26:22;12.15;;;6.07;;
78169;SDS011;67412;49.892;14.490;2023-06-10T03:28:48;10.70;;;5.53;;
78169;SDS011;67412;49.892;14.490;2023-06-10T03:31:13;9.30;;;5.13;;
78169;SDS011;67412;49.892;14.490;2023-06-10T03:33:41;10.00;;;5.28;;
78169;SDS011;67412;49.892;14.490;2023-06-10T03:36:07;10.57;;;5.05;;
78169;SDS011;67412;49.892;14.490;2023-06-10T03:38:32;10.40;;;5.18;;
78169;SDS011;67412;49.892;14.490;2023-06-10T03:40:57;9.85;;;5.15;;
78169;SDS011;67412;49.892;14.490;2023-06-10T03:43:23;11.80;;;5.03;;
78169;SDS011;67412;49.892;14.490;2023-06-10T03:45:48;11.82;;;5.88;;
78169;SDS011;67412;49.892;14.490;2023-06-10T03:48:14;9.77;;;4.80;;
78169;SDS011;67412;49.892;14.490;2023-06-10T03:50:39;10.32;;;5.15;;
78169;SDS011;67412;49.892;14.490;2023-06-10T03:53:05;10.63;;;4.68;;
78169;SDS011;67412;49.892;14.490;2023-06-10T03:55:30;9.70;;;4.95;;
78169;SDS011;67412;49.892;14.490;2023-06-10T03:57:56;10.18;;;4.95;;
78169;SDS011;67412;49.892;14.490;2023-06-10T04:00:22;13.73;;;5.70;;
78169;SDS011;67412;49.892;14.490;2023-06-10T04:02:47;8.82;;;4.63;;
78169;SDS011;67412;49.892;14.490;2023-06-10T04:05:17;10.65;;;5.50;;
78169;SDS011;67412;49.892;14.490;2023-06-10T04:07:46;10.23;;;5.38;;
78169;SDS011;67412;49.892;14.490;2023-06-10T04:10:13;9.55;;;4.82;;
78169;SDS011;67412;49.892;14.490;2023-06-10T04:12:39;14.18;;;5.97;;
78169;SDS011;67412;49.892;14.490;2023-06-10T04:15:05;10.60;;;5.38;;
78169;SDS011;67412;49.892;14.490;2023-06-10T04:17:31;11.77;;;5.55;;
78169;SDS011;67412;49.892;14.490;2023-06-10T04:19:56;10.60;;;5.65;;
78169;SDS011;67412;49.892;14.490;2023-06-10T04:22:22;10.63;;;5.18;;
78169;SDS011;67412;49.892;14.490;2023-06-10T04:24:48;10.80;;;5.55;;
78169;SDS011;67412;49.892;14.490;2023-06-10T04:27:13;9.65;;;4.80;;
78169;SDS011;67412;49.892;14.490;2023-06-10T04:29:39;12.10;;;5.13;;
78169;SDS011;67412;49.892;14.490;2023-06-10T04:32:04;11.40;;;5.90;;
78169;SDS011;67412;49.892;14.490;2023-06-10T04:34:32;11.10;;;5.63;;
78169;SDS011;67412;49.892;14.490;2023-06-10T04:37:01;11.38;;;6.00;;
78169;SDS011;67412;49.892;14.490;2023-06-10T04:39:26;10.30;;;5.30;;
78169;SDS011;67412;49.892;14.490;2023-06-10T04:41:52;10.20;;;5.10;;
78169;SDS011;67412;49.892;14.490;2023-06-10T04:44:17;9.70;;;5.57;;
78169;SDS011;67412;49.892;14.490;2023-06-10T04:46:43;10.13;;;4.90;;
78169;SDS011;67412;49.892;14.490;2023-06-10T04:49:09;10.15;;;5.15;;
78169;SDS011;67412;49.892;14.490;2023-06-10T04:51:34;11.18;;;5.57;;
78169;SDS011;67412;49.892;14.490;2023-06-10T04:54:00;11.18;;;5.70;;
78169;SDS011;67412;49.892;14.490;2023-06-10T04:56:29;11.73;;;5.95;;
78169;SDS011;67412;49.892;14.490;2023-06-10T04:58:55;11.30;;;6.15;;
78169;SDS011;67412;49.892;14.490;2023-06-10T05:01:22;13.02;;;6.50;;
78169;SDS011;67412;49.892;14.490;2023-06-10T05:03:47;10.75;;;6.15;;
78169;SDS011;67412;49.892;14.490;2023-06-10T05:06:12;10.73;;;5.88;;
78169;SDS011;67412;49.892;14.490;2023-06-10T05:08:38;12.07;;;6.45;;
78169;SDS011;67412;49.892;14.490;2023-06-10T05:11:03;11.98;;;6.57;;
78169;SDS011;67412;49.892;14.490;2023-06-10T05:13:28;12.23;;;6.30;;
78169;SDS011;67412;49.892;14.490;2023-06-10T05:15:54;10.70;;;5.82;;
78169;SDS011;67412;49.892;14.490;2023-06-10T05:18:20;10.95;;;5.65;;
78169;SDS011;67412;49.892;14.490;2023-06-10T05:20:45;10.85;;;5.60;;
78169;SDS011;67412;49.892;14.490;2023-06-10T05:23:11;10.80;;;5.47;;
78169;SDS011;67412;49.892;14.490;2023-06-10T05:25:36;10.45;;;5.22;;
78169;SDS011;67412;49.892;14.490;2023-06-10T05:28:02;8.82;;;4.82;;
78169;SDS011;67412;49.892;14.490;2023-06-10T05:30:27;10.02;;;5.18;;
78169;SDS011;67412;49.892;14.490;2023-06-10T05:32:52;10.00;;;5.43;;
78169;SDS011;67412;49.892;14.490;2023-06-10T05:35:18;9.18;;;4.85;;
78169;SDS011;67412;49.892;14.490;2023-06-10T05:37:43;10.85;;;5.43;;
78169;SDS011;67412;49.892;14.490;2023-06-10T05:40:09;11.48;;;5.45;;
78169;SDS011;67412;49.892;14.490;2023-06-10T05:42:35;10.63;;;5.38;;
78169;SDS011;67412;49.892;14.490;2023-06-10T05:45:00;10.75;;;4.80;;
78169;SDS011;67412;49.892;14.490;2023-06-10T05:47:27;10.77;;;5.57;;
78169;SDS011;67412;49.892;14.490;2023-06-10T05:49:52;9.75;;;5.45;;
78169;SDS011;67412;49.892;14.490;2023-06-10T05:52:18;9.30;;;5.40;;
78169;SDS011;67412;49.892;14.490;2023-06-10T05:54:43;8.05;;;4.50;;
78169;SDS011;67412;49.892;14.490;2023-06-10T05:57:09;10.88;;;5.95;;
78169;SDS011;67412;49.892;14.490;2023-06-10T05:59:35;9.75;;;5.10;;
78169;SDS011;67412;49.892;14.490;2023-06-10T06:02:00;9.45;;;4.88;;
78169;SDS011;67412;49.892;14.490;2023-06-10T06:04:26;11.60;;;5.15;;
78169;SDS011;67412;49.892;14.490;2023-06-10T06:06:51;10.90;;;5.07;;
78169;SDS011;67412;49.892;14.490;2023-06-10T06:09:17;9.10;;;4.82;;
78169;SDS011;67412;49.892;14.490;2023-06-10T06:11:42;10.15;;;4.80;;
78169;SDS011;67412;49.892;14.490;2023-06-10T06:14:07;9.13;;;5.05;;
78169;SDS011;67412;49.892;14.490;2023-06-10T06:16:33;10.80;;;5.70;;
78169;SDS011;67412;49.892;14.490;2023-06-10T06:18:58;10.32;;;4.63;;
78169;SDS011;67412;49.892;14.490;2023-06-10T06:21:24;9.77;;;5.28;;
78169;SDS011;67412;49.892;14.490;2023-06-10T06:23:49;9.30;;;4.68;;
78169;SDS011;67412;49.892;14.490;2023-06-10T06:26:14;7.90;;;4.30;;
78169;SDS011;67412;49.892;14.490;2023-06-10T06:28:40;8.75;;;4.00;;
78169;SDS011;67412;49.892;14.490;2023-06-10T06:31:06;7.82;;;4.38;;
78169;SDS011;67412;49.892;14.490;2023-06-10T06:33:32;9.45;;;4.70;;
78169;SDS011;67412;49.892;14.490;2023-06-10T06:35:57;9.15;;;4.70;;
78169;SDS011;67412;49.892;14.490;2023-06-10T06:38:25;8.18;;;4.28;;
78169;SDS011;67412;49.892;14.490;2023-06-10T06:40:51;8.50;;;4.47;;
78169;SDS011;67412;49.892;14.490;2023-06-10T06:43:16;8.43;;;4.40;;
78169;SDS011;67412;49.892;14.490;2023-06-10T06:45:43;9.25;;;4.50;;
78169;SDS011;67412;49.892;14.490;2023-06-10T06:48:10;9.02;;;4.10;;
78169;SDS011;67412;49.892;14.490;2023-06-10T06:50:36;9.45;;;4.43;;
78169;SDS011;67412;49.892;14.490;2023-06-10T06:53:03;8.75;;;4.30;;
78169;SDS011;67412;49.892;14.490;2023-06-10T06:55:29;8.43;;;4.70;;
78169;SDS011;67412;49.892;14.490;2023-06-10T06:57:55;8.07;;;4.47;;
78169;SDS011;67412;49.892;14.490;2023-06-10T07:00:20;8.60;;;4.15;;
78169;SDS011;67412;49.892;14.490;2023-06-10T07:02:46;8.45;;;4.60;;
78169;SDS011;67412;49.892;14.490;2023-06-10T07:05:12;7.82;;;4.50;;
78169;SDS011;67412;49.892;14.490;2023-06-10T07:07:37;7.90;;;4.40;;
78169;SDS011;67412;49.892;14.490;2023-06-10T07:10:03;8.45;;;5.00;;
78169;SDS011;67412;49.892;14.490;2023-06-10T07:12:29;7.78;;;4.35;;
78169;SDS011;67412;49.892;14.490;2023-06-10T07:14:54;7.68;;;4.53;;
78169;SDS011;67412;49.892;14.490;2023-06-10T07:17:20;7.93;;;4.38;;
78169;SDS011;67412;49.892;14.490;2023-06-10T07:19:45;9.95;;;4.60;;
78169;SDS011;67412;49.892;14.490;2023-06-10T07:22:11;8.57;;;4.75;;
78169;SDS011;67412;49.892;14.490;2023-06-10T07:24:36;8.73;;;5.00;;
78169;SDS011;67412;49.892;14.490;2023-06-10T07:27:01;9.20;;;4.63;;
78169;SDS011;67412;49.892;14.490;2023-06-10T07:29:27;8.55;;;4.82;;
78169;SDS011;67412;49.892;14.490;2023-06-10T07:31:52;8.75;;;4.57;;
78169;SDS011;67412;49.892;14.490;2023-06-10T07:34:18;11.27;;;5.10;;
78169;SDS011;67412;49.892;14.490;2023-06-10T07:36:43;7.80;;;4.25;;
78169;SDS011;67412;49.892;14.490;2023-06-10T07:39:09;8.07;;;4.35;;
78169;SDS011;67412;49.892;14.490;2023-06-10T07:41:35;9.85;;;4.88;;
78169;SDS011;67412;49.892;14.490;2023-06-10T07:44:00;10.20;;;4.88;;
78169;SDS011;67412;49.892;14.490;2023-06-10T07:46:26;9.88;;;4.53;;
78169;SDS011;67412;49.892;14.490;2023-06-10T07:48:52;8.23;;;4.40;;
78169;SDS011;67412;49.892;14.490;2023-06-10T07:51:18;8.13;;;4.43;;
78169;SDS011;67412;49.892;14.490;2023-06-10T07:53:44;7.70;;;4.30;;
78169;SDS011;67412;49.892;14.490;2023-06-10T07:56:09;9.95;;;4.25;;
78169;SDS011;67412;49.892;14.490;2023-06-10T07:58:35;8.27;;;4.85;;
78169;SDS011;67412;49.892;14.490;2023-06-10T08:01:00;9.30;;;5.13;;
78169;SDS011;67412;49.892;14.490;2023-06-10T08:03:25;8.77;;;5.07;;
78169;SDS011;67412;49.892;14.490;2023-06-10T08:05:51;10.02;;;4.28;;
78169;SDS011;67412;49.892;14.490;2023-06-10T08:08:16;10.68;;;5.40;;
78169;SDS011;67412;49.892;14.490;2023-06-10T08:10:41;9.88;;;5.35;;
78169;SDS011;67412;49.892;14.490;2023-06-10T08:13:07;9.52;;;5.65;;
78169;SDS011;67412;49.892;14.490;2023-06-10T08:15:33;9.30;;;5.03;;
78169;SDS011;67412;49.892;14.490;2023-06-10T08:17:58;9.63;;;5.85;;
78169;SDS011;67412;49.892;14.490;2023-06-10T08:20:24;11.07;;;5.70;;
78169;SDS011;67412;49.892;14.490;2023-06-10T08:22:49;9.13;;;5.55;;
78169;SDS011;67412;49.892;14.490;2023-06-10T08:25:15;12.98;;;5.65;;
78169;SDS011;67412;49.892;14.490;2023-06-10T08:27:40;9.52;;;5.32;;
78169;SDS011;67412;49.892;14.490;2023-06-10T08:30:06;10.18;;;5.55;;
78169;SDS011;67412;49.892;14.490;2023-06-10T08:32:32;11.25;;;5.80;;
78169;SDS011;67412;49.892;14.490;2023-06-10T08:34:58;9.82;;;5.47;;
78169;SDS011;67412;49.892;14.490;2023-06-10T08:37:23;8.95;;;5.65;;
78169;SDS011;67412;49.892;14.490;2023-06-10T08:39:49;10.88;;;5.57;;
78169;SDS011;67412;49.892;14.490;2023-06-10T08:45:02;9.40;;;5.55;;
78169;SDS011;67412;49.892;14.490;2023-06-10T08:47:29;11.32;;;6.45;;
78169;SDS011;67412;49.892;14.490;2023-06-10T08:49:56;11.45;;;6.20;;
78169;SDS011;67412;49.892;14.490;2023-06-10T08:52:28;9.95;;;5.57;;
78169;SDS011;67412;49.892;14.490;2023-06-10T08:55:00;10.45;;;5.53;;
78169;SDS011;67412;49.892;14.490;2023-06-10T08:57:29;10.48;;;6.03;;
78169;SDS011;67412;49.892;14.490;2023-06-10T08:59:56;9.27;;;5.25;;
78169;SDS011;67412;49.892;14.490;2023-06-10T09:02:22;10.43;;;5.20;;
78169;SDS011;67412;49.892;14.490;2023-06-10T09:04:49;9.38;;;5.65;;
78169;SDS011;67412;49.892;14.490;2023-06-10T09:07:15;10.23;;;5.57;;
78169;SDS011;67412;49.892;14.490;2023-06-10T09:09:44;12.52;;;6.20;;
78169;SDS011;67412;49.892;14.490;2023-06-10T09:12:10;10.27;;;6.05;;
78169;SDS011;67412;49.892;14.490;2023-06-10T09:14:37;10.90;;;6.25;;
78169;SDS011;67412;49.892;14.490;2023-06-10T09:17:03;9.63;;;5.47;;
78169;SDS011;67412;49.892;14.490;2023-06-10T09:19:28;10.15;;;6.03;;
78169;SDS011;67412;49.892;14.490;2023-06-10T09:21:54;9.63;;;4.65;;
78169;SDS011;67412;49.892;14.490;2023-06-10T09:24:23;9.38;;;5.38;;
78169;SDS011;67412;49.892;14.490;2023-06-10T09:26:49;9.65;;;5.03;;
78169;SDS011;67412;49.892;14.490;2023-06-10T09:29:15;9.45;;;5.22;;
78169;SDS011;67412;49.892;14.490;2023-06-10T09:31:41;10.27;;;5.05;;
78169;SDS011;67412;49.892;14.490;2023-06-10T09:34:10;10.15;;;6.00;;
78169;SDS011;67412;49.892;14.490;2023-06-10T09:36:37;10.05;;;5.13;;
78169;SDS011;67412;49.892;14.490;2023-06-10T09:41:33;9.30;;;5.45;;
78169;SDS011;67412;49.892;14.490;2023-06-10T09:44:09;12.25;;;6.15;;
78169;SDS011;67412;49.892;14.490;2023-06-10T09:46:37;13.30;;;6.60;;
78169;SDS011;67412;49.892;14.490;2023-06-10T09:49:02;11.32;;;6.03;;
78169;SDS011;67412;49.892;14.490;2023-06-10T09:51:27;9.70;;;6.40;;
78169;SDS011;67412;49.892;14.490;2023-06-10T09:53:53;10.18;;;5.78;;
78169;SDS011;67412;49.892;14.490;2023-06-10T09:56:19;10.10;;;5.75;;
78169;SDS011;67412;49.892;14.490;2023-06-10T09:58:44;10.48;;;5.40;;
78169;SDS011;67412;49.892;14.490;2023-06-10T10:01:11;11.52;;;5.53;;
78169;SDS011;67412;49.892;14.490;2023-06-10T10:03:48;12.25;;;5.72;;
78169;SDS011;67412;49.892;14.490;2023-06-10T10:06:15;9.73;;;5.78;;
78169;SDS011;67412;49.892;14.490;2023-06-10T10:08:42;10.20;;;6.07;;
78169;SDS011;67412;49.892;14.490;2023-06-10T10:11:08;9.88;;;6.05;;
78169;SDS011;67412;49.892;14.490;2023-06-10T10:13:34;10.70;;;6.90;;
78169;SDS011;67412;49.892;14.490;2023-06-10T10:18:36;11.35;;;6.43;;
78169;SDS011;67412;49.892;14.490;2023-06-10T10:21:07;10.68;;;5.95;;
78169;SDS011;67412;49.892;14.490;2023-06-10T10:26:09;9.80;;;6.00;;
78169;SDS011;67412;49.892;14.490;2023-06-10T10:31:13;10.80;;;5.80;;
78169;SDS011;67412;49.892;14.490;2023-06-10T10:36:25;12.68;;;5.82;;
78169;SDS011;67412;49.892;14.490;2023-06-10T10:38:52;10.57;;;6.65;;
78169;SDS011;67412;49.892;14.490;2023-06-10T10:41:18;10.63;;;5.88;;
78169;SDS011;67412;49.892;14.490;2023-06-10T10:43:45;10.35;;;6.53;;
78169;SDS011;67412;49.892;14.490;2023-06-10T10:48:41;10.25;;;5.63;;
78169;SDS011;67412;49.892;14.490;2023-06-10T10:51:07;9.85;;;5.88;;
78169;SDS011;67412;49.892;14.490;2023-06-10T10:53:33;10.43;;;6.55;;
78169;SDS011;67412;49.892;14.490;2023-06-10T10:56:04;10.00;;;5.93;;
78169;SDS011;67412;49.892;14.490;2023-06-10T10:58:30;10.48;;;6.45;;
78169;SDS011;67412;49.892;14.490;2023-06-10T11:00:57;9.05;;;5.47;;
78169;SDS011;67412;49.892;14.490;2023-06-10T11:03:22;9.95;;;6.05;;
78169;SDS011;67412;49.892;14.490;2023-06-10T11:05:53;10.68;;;5.93;;
78169;SDS011;67412;49.892;14.490;2023-06-10T11:10:57;11.93;;;7.18;;
78169;SDS011;67412;49.892;14.490;2023-06-10T11:13:23;11.52;;;6.80;;
78169;SDS011;67412;49.892;14.490;2023-06-10T11:15:51;12.02;;;6.22;;
78169;SDS011;67412;49.892;14.490;2023-06-10T11:26:13;9.32;;;5.78;;
78169;SDS011;67412;49.892;14.490;2023-06-10T11:29:00;10.80;;;6.00;;
78169;SDS011;67412;49.892;14.490;2023-06-10T11:31:46;8.60;;;4.80;;
78169;SDS011;67412;49.892;14.490;2023-06-10T11:34:15;11.23;;;6.50;;
78169;SDS011;67412;49.892;14.490;2023-06-10T11:36:41;12.05;;;6.10;;
78169;SDS011;67412;49.892;14.490;2023-06-10T11:39:10;11.40;;;6.53;;
78169;SDS011;67412;49.892;14.490;2023-06-10T11:41:36;9.80;;;6.10;;
78169;SDS011;67412;49.892;14.490;2023-06-10T11:44:03;10.27;;;5.65;;
78169;SDS011;67412;49.892;14.490;2023-06-10T11:46:33;8.32;;;5.05;;
78169;SDS011;67412;49.892;14.490;2023-06-10T11:48:59;9.75;;;5.65;;
78169;SDS011;67412;49.892;14.490;2023-06-10T11:51:28;10.20;;;5.50;;
78169;SDS011;67412;49.892;14.490;2023-06-10T11:53:55;9.00;;;5.32;;
78169;SDS011;67412;49.892;14.490;2023-06-10T11:58:51;8.98;;;5.47;;
78169;SDS011;67412;49.892;14.490;2023-06-10T12:01:28;8.25;;;4.63;;
78169;SDS011;67412;49.892;14.490;2023-06-10T12:04:04;10.40;;;5.07;;
78169;SDS011;67412;49.892;14.490;2023-06-10T12:09:25;9.98;;;5.13;;
78169;SDS011;67412;49.892;14.490;2023-06-10T12:11:57;11.43;;;5.20;;
78169;SDS011;67412;49.892;14.490;2023-06-10T12:17:23;9.30;;;5.55;;
78169;SDS011;67412;49.892;14.490;2023-06-10T12:20:12;10.95;;;5.38;;
78169;SDS011;67412;49.892;14.490;2023-06-10T12:22:50;10.05;;;5.68;;
78169;SDS011;67412;49.892;14.490;2023-06-10T12:25:15;10.52;;;5.45;;
78169;SDS011;67412;49.892;14.490;2023-06-10T12:27:49;8.70;;;5.30;;
78169;SDS011;67412;49.892;14.490;2023-06-10T12:30:18;12.07;;;5.55;;
78169;SDS011;67412;49.892;14.490;2023-06-10T12:32:45;10.43;;;5.13;;
78169;SDS011;67412;49.892;14.490;2023-06-10T12:35:12;10.40;;;5.95;;
78169;SDS011;67412;49.892;14.490;2023-06-10T12:37:40;9.88;;;5.68;;
78169;SDS011;67412;49.892;14.490;2023-06-10T12:40:05;10.18;;;5.60;;
78169;SDS011;67412;49.892;14.490;2023-06-10T12:42:33;10.05;;;5.45;;
78169;SDS011;67412;49.892;14.490;2023-06-10T12:45:00;13.00;;;6.00;;
78169;SDS011;67412;49.892;14.490;2023-06-10T12:47:29;9.30;;;5.50;;
78169;SDS011;67412;49.892;14.490;2023-06-10T12:50:00;9.32;;;5.40;;
78169;SDS011;67412;49.892;14.490;2023-06-10T12:52:26;10.07;;;5.53;;
78169;SDS011;67412;49.892;14.490;2023-06-10T12:54:53;9.40;;;5.47;;
78169;SDS011;67412;49.892;14.490;2023-06-10T12:57:19;10.50;;;5.78;;
78169;SDS011;67412;49.892;14.490;2023-06-10T12:59:45;9.82;;;6.07;;
78169;SDS011;67412;49.892;14.490;2023-06-10T13:02:15;11.88;;;6.68;;
78169;SDS011;67412;49.892;14.490;2023-06-10T13:04:43;9.65;;;5.50;;
78169;SDS011;67412;49.892;14.490;2023-06-10T13:07:09;8.60;;;5.90;;
78169;SDS011;67412;49.892;14.490;2023-06-10T13:09:35;10.50;;;5.32;;
78169;SDS011;67412;49.892;14.490;2023-06-10T13:12:01;9.93;;;5.22;;
78169;SDS011;67412;49.892;14.490;2023-06-10T13:14:26;10.18;;;5.68;;
78169;SDS011;67412;49.892;14.490;2023-06-10T13:16:52;11.00;;;5.43;;
78169;SDS011;67412;49.892;14.490;2023-06-10T13:19:19;9.65;;;5.82;;
78169;SDS011;67412;49.892;14.490;2023-06-10T13:21:46;10.73;;;6.25;;
78169;SDS011;67412;49.892;14.490;2023-06-10T13:24:12;10.02;;;5.63;;
78169;SDS011;67412;49.892;14.490;2023-06-10T13:26:37;10.95;;;5.97;;
78169;SDS011;67412;49.892;14.490;2023-06-10T13:29:02;7.93;;;5.28;;
78169;SDS011;67412;49.892;14.490;2023-06-10T13:31:28;12.85;;;6.63;;
78169;SDS011;67412;49.892;14.490;2023-06-10T13:33:53;20.80;;;9.90;;
78169;SDS011;67412;49.892;14.490;2023-06-10T13:36:18;11.40;;;5.68;;
78169;SDS011;67412;49.892;14.490;2023-06-10T13:38:44;9.30;;;5.28;;
78169;SDS011;67412;49.892;14.490;2023-06-10T13:41:10;8.73;;;5.00;;
78169;SDS011;67412;49.892;14.490;2023-06-10T13:43:35;11.38;;;5.05;;
78169;SDS011;67412;49.892;14.490;2023-06-10T13:46:01;7.90;;;5.30;;
78169;SDS011;67412;49.892;14.490;2023-06-10T13:48:26;8.15;;;4.43;;
78169;SDS011;67412;49.892;14.490;2023-06-10T13:50:51;7.68;;;4.53;;
78169;SDS011;67412;49.892;14.490;2023-06-10T13:53:17;9.45;;;4.70;;
78169;SDS011;67412;49.892;14.490;2023-06-10T13:55:42;8.45;;;4.43;;
78169;SDS011;67412;49.892;14.490;2023-06-10T13:58:07;10.35;;;4.35;;
78169;SDS011;67412;49.892;14.490;2023-06-10T14:00:33;8.23;;;4.57;;
78169;SDS011;67412;49.892;14.490;2023-06-10T14:02:58;7.45;;;4.50;;
78169;SDS011;67412;49.892;14.490;2023-06-10T14:05:24;9.80;;;4.82;;
78169;SDS011;67412;49.892;14.490;2023-06-10T14:07:49;7.70;;;4.00;;
78169;SDS011;67412;49.892;14.490;2023-06-10T14:10:14;8.75;;;4.60;;
78169;SDS011;67412;49.892;14.490;2023-06-10T14:12:40;8.75;;;3.92;;
78169;SDS011;67412;49.892;14.490;2023-06-10T14:15:05;7.55;;;3.75;;
78169;SDS011;67412;49.892;14.490;2023-06-10T14:17:31;6.57;;;4.30;;
78169;SDS011;67412;49.892;14.490;2023-06-10T14:19:56;8.70;;;4.50;;
78169;SDS011;67412;49.892;14.490;2023-06-10T14:22:22;10.27;;;4.03;;
78169;SDS011;67412;49.892;14.490;2023-06-10T14:24:47;8.90;;;4.22;;
78169;SDS011;67412;49.892;14.490;2023-06-10T14:27:12;8.43;;;4.20;;
78169;SDS011;67412;49.892;14.490;2023-06-10T14:29:38;10.25;;;4.45;;
78169;SDS011;67412;49.892;14.490;2023-06-10T14:32:03;9.90;;;5.05;;
78169;SDS011;67412;49.892;14.490;2023-06-10T14:34:29;7.90;;;3.92;;
78169;SDS011;67412;49.892;14.490;2023-06-10T14:36:58;9.00;;;4.82;;
78169;SDS011;67412;49.892;14.490;2023-06-10T14:39:24;9.30;;;4.60;;
78169;SDS011;67412;49.892;14.490;2023-06-10T14:41:50;9.48;;;4.25;;
78169;SDS011;67412;49.892;14.490;2023-06-10T14:44:17;8.55;;;4.78;;
78169;SDS011;67412;49.892;14.490;2023-06-10T14:46:43;9.35;;;5.35;;
78169;SDS011;67412;49.892;14.490;2023-06-10T14:49:08;9.95;;;4.80;;
78169;SDS011;67412;49.892;14.490;2023-06-10T14:51:33;9.50;;;4.18;;
78169;SDS011;67412;49.892;14.490;2023-06-10T14:53:59;8.77;;;4.43;;
78169;SDS011;67412;49.892;14.490;2023-06-10T14:56:24;10.70;;;4.22;;
78169;SDS011;67412;49.892;14.490;2023-06-10T14:58:50;9.02;;;4.68;;
78169;SDS011;67412;49.892;14.490;2023-06-10T15:01:16;9.68;;;4.70;;
78169;SDS011;67412;49.892;14.490;2023-06-10T15:03:43;7.35;;;4.15;;